Time;durP1;ratioP1;P1;durP2;ratioP2;P2;SDS_P1;SDS_P2;PMS_P1;PMS_P2;Temp;Humidity;BMP_temperature;BMP_pressure;BME280_temperature;BME280_humidity;BME280_pressure;Samples;Min_cycle;Max_cycle;Signal;HPM_P1;HPM_P2
2021/09/05 00:01:32;;;;;;;16.43;12.67;;;;;;;;;;5033836;28;20445;-57
2021/09/05 00:04:01;;;;;;;15.93;12.63;;;;;;;;;;5033497;28;20449;-56
2021/09/05 00:06:29;;;;;;;16.17;12.17;;;;;;;;;;5033451;28;20448;-58
2021/09/05 00:08:58;;;;;;;17.77;13.20;;;;;;;;;;5033173;28;20533;-57
2021/09/05 00:11:25;;;;;;;19.63;13.20;;;;;;;;;;5033779;28;20465;-58
2021/09/05 00:13:52;;;;;;;16.03;13.20;;;;;;;;;;5032952;28;20472;-57
2021/09/05 00:16:19;;;;;;;17.20;13.10;;;;;;;;;;5033295;28;20491;-56
2021/09/05 00:18:47;;;;;;;16.40;13.30;;;;;;;;;;5032970;28;20519;-57
2021/09/05 00:21:14;;;;;;;17.10;13.40;;;;;;;;;;5033172;28;20460;-57
2021/09/05 00:23:41;;;;;;;18.27;12.53;;;;;;;;;;5034408;28;20453;-57
2021/09/05 00:26:11;;;;;;;13.90;12.40;;;;;;;;;;5037355;28;20444;-57
2021/09/05 00:28:38;;;;;;;17.87;13.10;;;;;;;;;;5037270;28;20464;-57
2021/09/05 00:31:05;;;;;;;16.90;13.80;;;;;;;;;;5037178;28;20468;-57
2021/09/05 00:33:32;;;;;;;14.57;12.07;;;;;;;;;;5037106;28;20485;-58
2021/09/05 00:36:00;;;;;;;14.13;12.20;;;;;;;;;;5036913;28;20448;-57
2021/09/05 00:38:27;;;;;;;15.20;13.20;;;;;;;;;;5037018;28;20468;-58
2021/09/05 00:40:54;;;;;;;16.97;12.90;;;;;;;;;;5036626;28;20945;-58
2021/09/05 00:43:23;;;;;;;16.90;12.83;;;;;;;;;;5037023;28;20451;-58
2021/09/05 00:45:50;;;;;;;17.93;12.60;;;;;;;;;;5037043;28;20444;-58
2021/09/05 00:48:17;;;;;;;17.60;12.60;;;;;;;;;;5039840;28;20514;-57
2021/09/05 00:50:45;;;;;;;18.57;13.03;;;;;;;;;;5037553;28;20451;-58
2021/09/05 00:53:12;;;;;;;15.90;11.63;;;;;;;;;;5036767;28;20559;-58
2021/09/05 00:55:39;;;;;;;13.47;11.67;;;;;;;;;;5036568;28;20449;-58
2021/09/05 00:58:08;;;;;;;18.10;12.83;;;;;;;;;;5036211;28;21026;-58
2021/09/05 01:00:37;;;;;;;15.40;12.50;;;;;;;;;;5036893;28;20445;-57
2021/09/05 01:03:04;;;;;;;18.10;12.63;;;;;;;;;;5038151;28;20531;-57
2021/09/05 01:05:32;;;;;;;14.83;12.60;;;;;;;;;;5037235;28;20499;-57
2021/09/05 01:07:59;;;;;;;16.23;12.97;;;;;;;;;;5036382;28;21026;-57
2021/09/05 01:10:27;;;;;;;17.07;13.00;;;;;;;;;;5036381;28;20961;-57
2021/09/05 01:12:54;;;;;;;17.47;13.27;;;;;;;;;;5036244;28;20495;-57
2021/09/05 01:15:21;;;;;;;17.40;13.80;;;;;;;;;;5036486;28;20530;-58
2021/09/05 01:17:50;;;;;;;14.97;12.27;;;;;;;;;;5036456;28;20984;-58
2021/09/05 01:20:17;;;;;;;18.77;12.80;;;;;;;;;;5036200;28;20477;-57
2021/09/05 01:22:44;;;;;;;21.30;13.70;;;;;;;;;;5036751;28;20457;-57
2021/09/05 01:25:12;;;;;;;16.60;12.90;;;;;;;;;;5036297;28;20448;-57
2021/09/05 01:27:40;;;;;;;18.80;14.97;;;;;;;;;;5036069;28;20468;-57
2021/09/05 01:30:08;;;;;;;17.07;12.53;;;;;;;;;;5036149;28;20448;-57
2021/09/05 01:32:35;;;;;;;15.90;13.00;;;;;;;;;;5036264;28;20499;-57
2021/09/05 01:35:03;;;;;;;18.77;12.10;;;;;;;;;;5035276;28;20485;-57
2021/09/05 01:37:31;;;;;;;17.93;13.67;;;;;;;;;;5035714;28;20469;-57
2021/09/05 01:39:58;;;;;;;13.90;12.03;;;;;;;;;;5035666;28;20437;-58
2021/09/05 01:42:25;;;;;;;17.20;12.80;;;;;;;;;;5035818;28;20506;-57
2021/09/05 01:44:54;;;;;;;16.53;11.87;;;;;;;;;;5035895;28;20503;-57
2021/09/05 01:47:21;;;;;;;14.60;12.80;;;;;;;;;;5035761;28;20523;-57
2021/09/05 01:49:49;;;;;;;19.10;12.70;;;;;;;;;;5035524;28;20449;-57
2021/09/05 01:52:17;;;;;;;15.87;12.90;;;;;;;;;;5035418;28;20452;-56
2021/09/05 01:54:44;;;;;;;16.73;12.00;;;;;;;;;;5035693;28;20522;-57
2021/09/05 01:59:44;;;;;;;18.08;12.30;;;;;;;;;;5055755;22;20241;-65
2021/09/05 02:02:13;;;;;;;19.60;13.27;;;;;;;;;;5043474;28;20756;-64
2021/09/05 02:04:40;;;;;;;21.52;13.55;;;;;;;;;;5039541;28;20252;-65
2021/09/05 02:07:07;;;;;;;17.80;12.60;;;;;;;;;;5039683;28;20619;-64
2021/09/05 02:09:35;;;;;;;17.85;13.05;;;;;;;;;;5038902;28;20523;-65
2021/09/05 02:12:02;;;;;;;16.65;12.57;;;;;;;;;;5038752;28;20207;-65
2021/09/05 02:14:29;;;;;;;20.77;12.83;;;;;;;;;;5038041;28;20636;-64
2021/09/05 02:16:56;;;;;;;16.55;11.82;;;;;;;;;;5037385;28;20457;-64
2021/09/05 02:19:26;;;;;;;17.83;11.97;;;;;;;;;;5037085;28;20233;-63
2021/09/05 02:21:53;;;;;;;17.10;12.63;;;;;;;;;;5036259;28;20449;-63
2021/09/05 02:24:21;;;;;;;17.70;12.38;;;;;;;;;;5036254;28;20936;-64
2021/09/05 02:26:48;;;;;;;16.30;12.40;;;;;;;;;;5035895;28;20732;-64
2021/09/05 02:29:15;;;;;;;18.90;12.57;;;;;;;;;;5036214;28;20219;-63
2021/09/05 02:31:43;;;;;;;14.88;11.73;;;;;;;;;;5036512;28;20228;-64
2021/09/05 02:34:10;;;;;;;15.75;11.75;;;;;;;;;;5035843;28;20226;-65
2021/09/05 02:36:39;;;;;;;16.33;13.20;;;;;;;;;;5036018;28;20576;-64
2021/09/05 02:39:06;;;;;;;14.67;12.93;;;;;;;;;;5036014;28;20544;-64
2021/09/05 02:41:33;;;;;;;23.63;12.47;;;;;;;;;;5035646;28;20866;-63
2021/09/05 02:44:01;;;;;;;17.48;12.27;;;;;;;;;;5035539;28;20445;-64
2021/09/05 02:46:28;;;;;;;15.95;12.20;;;;;;;;;;5035268;28;20248;-64
2021/09/05 02:48:55;;;;;;;16.83;12.88;;;;;;;;;;5034946;28;20265;-63
2021/09/05 02:51:23;;;;;;;20.45;12.65;;;;;;;;;;5035468;28;20206;-65
2021/09/05 02:53:51;;;;;;;15.23;12.50;;;;;;;;;;5035883;28;20222;-64
2021/09/05 02:56:18;;;;;;;15.87;12.17;;;;;;;;;;5035412;28;20198;-63
2021/09/05 02:58:46;;;;;;;19.05;13.57;;;;;;;;;;5034984;28;20476;-65
2021/09/05 03:01:13;;;;;;;15.02;13.00;;;;;;;;;;5035827;28;20241;-64
2021/09/05 03:03:41;;;;;;;17.98;12.05;;;;;;;;;;5035851;28;20226;-65
2021/09/05 03:06:08;;;;;;;15.38;12.38;;;;;;;;;;5035660;28;20732;-64
2021/09/05 03:08:35;;;;;;;15.07;12.75;;;;;;;;;;5036632;28;20217;-65
2021/09/05 03:11:04;;;;;;;14.43;12.63;;;;;;;;;;5035789;28;20206;-65
2021/09/05 03:13:32;;;;;;;15.07;12.90;;;;;;;;;;5035252;28;20256;-64
2021/09/05 03:15:59;;;;;;;16.65;13.52;;;;;;;;;;5034714;28;20626;-65
2021/09/05 03:18:26;;;;;;;17.90;14.63;;;;;;;;;;5034735;28;20226;-64
2021/09/05 03:20:53;;;;;;;17.83;12.60;;;;;;;;;;5034970;28;20210;-63
2021/09/05 03:23:21;;;;;;;21.33;14.95;;;;;;;;;;5034551;28;20740;-65
2021/09/05 03:25:48;;;;;;;17.77;13.93;;;;;;;;;;5034509;28;20198;-64
2021/09/05 03:28:17;;;;;;;21.48;14.82;;;;;;;;;;5034369;28;20226;-64
2021/09/05 03:30:44;;;;;;;15.38;12.68;;;;;;;;;;5034991;28;20206;-64
2021/09/05 03:33:11;;;;;;;16.08;12.27;;;;;;;;;;5034334;28;20214;-64
2021/09/05 03:35:39;;;;;;;19.42;14.75;;;;;;;;;;5034597;28;20230;-64
2021/09/05 03:38:06;;;;;;;16.60;12.15;;;;;;;;;;5034479;28;20230;-64
2021/09/05 03:40:33;;;;;;;19.15;13.63;;;;;;;;;;5034901;28;20607;-65
2021/09/05 03:43:00;;;;;;;19.73;12.82;;;;;;;;;;5034441;28;20230;-63
2021/09/05 03:45:29;;;;;;;18.42;13.63;;;;;;;;;;5034661;28;20728;-64
2021/09/05 03:47:56;;;;;;;22.98;13.20;;;;;;;;;;5034570;28;20280;-65
2021/09/05 03:50:24;;;;;;;19.92;13.68;;;;;;;;;;5034617;28;20623;-65
2021/09/05 03:52:51;;;;;;;20.85;12.60;;;;;;;;;;5037393;28;20202;-65
2021/09/05 03:55:18;;;;;;;16.25;11.82;;;;;;;;;;5040728;28;20280;-65
2021/09/05 03:57:46;;;;;;;17.52;11.50;;;;;;;;;;5034737;28;20234;-64
2021/09/05 04:00:14;;;;;;;19.92;11.70;;;;;;;;;;5034823;28;20187;-62
2021/09/05 04:02:43;;;;;;;13.85;11.75;;;;;;;;;;5034297;28;20206;-64
2021/09/05 04:08:39;;;;;;;17.98;12.70;;;;;;;;;;5094130;27;20537;-65
2021/09/05 04:11:06;;;;;;;16.70;12.75;;;;;;;;;;5094157;28;20595;-66
2021/09/05 04:13:34;;;;;;;18.17;12.50;;;;;;;;;;5093631;28;20216;-64
2021/09/05 04:16:02;;;;;;;18.02;11.93;;;;;;;;;;5093558;28;20204;-65
2021/09/05 04:18:29;;;;;;;18.02;11.48;;;;;;;;;;5093152;28;20216;-64
2021/09/05 04:20:56;;;;;;;15.50;11.63;;;;;;;;;;5093135;28;20724;-65
2021/09/05 04:23:24;;;;;;;16.48;12.68;;;;;;;;;;5093207;28;20200;-64
2021/09/05 04:25:52;;;;;;;13.40;12.00;;;;;;;;;;5093410;28;20599;-64
2021/09/05 04:28:20;;;;;;;16.85;12.60;;;;;;;;;;5093255;28;20224;-64
2021/09/05 04:30:47;;;;;;;14.88;10.70;;;;;;;;;;5093579;28;20676;-64
2021/09/05 04:33:14;;;;;;;17.25;12.85;;;;;;;;;;5093844;28;20245;-64
2021/09/05 04:35:42;;;;;;;15.55;12.00;;;;;;;;;;5095064;28;20291;-65
2021/09/05 04:38:09;;;;;;;13.85;10.55;;;;;;;;;;5095905;28;20252;-64
2021/09/05 04:40:36;;;;;;;19.48;11.82;;;;;;;;;;5096794;28;20228;-64
2021/09/05 04:43:05;;;;;;;16.15;12.05;;;;;;;;;;5094361;28;20209;-64
2021/09/05 04:45:32;;;;;;;13.90;11.85;;;;;;;;;;5093534;28;20205;-65
2021/09/05 04:48:00;;;;;;;14.10;11.88;;;;;;;;;;5092376;28;20243;-65
2021/09/05 04:50:27;;;;;;;15.35;11.75;;;;;;;;;;5092845;28;20210;-66
2021/09/05 04:52:55;;;;;;;15.95;11.98;;;;;;;;;;5092684;28;20201;-65
2021/09/05 04:55:22;;;;;;;16.05;11.45;;;;;;;;;;5093030;28;20200;-64
2021/09/05 04:57:49;;;;;;;16.27;12.32;;;;;;;;;;5092629;28;20717;-64
2021/09/05 05:00:18;;;;;;;25.23;12.13;;;;;;;;;;5092167;28;20200;-65
2021/09/05 05:02:45;;;;;;;16.67;12.52;;;;;;;;;;5091864;28;20619;-65
2021/09/05 05:05:13;;;;;;;19.00;12.50;;;;;;;;;;5092306;28;20737;-65
2021/09/05 05:07:40;;;;;;;15.70;11.75;;;;;;;;;;5090909;28;20704;-63
2021/09/05 05:10:08;;;;;;;18.02;11.70;;;;;;;;;;5091610;28;20212;-65
2021/09/05 05:12:35;;;;;;;15.05;11.10;;;;;;;;;;5091265;28;20284;-64
2021/09/05 05:15:03;;;;;;;16.33;10.70;;;;;;;;;;5090880;28;20786;-63
2021/09/05 05:17:32;;;;;;;15.20;11.40;;;;;;;;;;5091196;28;20232;-65
2021/09/05 05:19:59;;;;;;;18.25;10.55;;;;;;;;;;5077967;28;20454;-64
2021/09/05 05:22:26;;;;;;;16.75;11.15;;;;;;;;;;5078980;28;20262;-64
2021/09/05 05:24:54;;;;;;;15.20;11.50;;;;;;;;;;5077951;28;20608;-65
2021/09/05 05:27:21;;;;;;;16.33;11.70;;;;;;;;;;5077593;28;20483;-66
2021/09/05 05:29:48;;;;;;;16.80;12.70;;;;;;;;;;5077369;28;20443;-65
2021/09/05 05:32:15;;;;;;;15.37;11.13;;;;;;;;;;5077350;28;20455;-64
2021/09/05 05:34:44;;;;;;;15.50;11.83;;;;;;;;;;5077223;28;20501;-63
2021/09/05 05:37:11;;;;;;;17.95;12.15;;;;;;;;;;5077049;28;20447;-65
2021/09/05 05:39:39;;;;;;;15.40;12.10;;;;;;;;;;5077649;28;20221;-64
2021/09/05 05:42:06;;;;;;;17.70;12.55;;;;;;;;;;5086616;28;20210;-65
2021/09/05 05:44:33;;;;;;;18.20;12.83;;;;;;;;;;5080293;28;20201;-65
2021/09/05 05:47:00;;;;;;;17.50;11.90;;;;;;;;;;5077330;28;20487;-64
2021/09/05 05:49:28;;;;;;;18.75;12.88;;;;;;;;;;5076959;28;20467;-64
2021/09/05 05:51:57;;;;;;;14.80;12.33;;;;;;;;;;5076903;28;20201;-65
2021/09/05 05:54:24;;;;;;;16.63;12.83;;;;;;;;;;5077062;28;20443;-65
2021/09/05 05:56:51;;;;;;;19.13;14.00;;;;;;;;;;5078170;28;20459;-65
2021/09/05 05:59:18;;;;;;;17.15;12.75;;;;;;;;;;5078262;28;20225;-65
2021/09/05 06:01:46;;;;;;;19.30;14.30;;;;;;;;;;5077357;28;20347;-65
2021/09/05 06:04:14;;;;;;;19.00;13.80;;;;;;;;;;5077822;28;20447;-66
2021/09/05 06:06:41;;;;;;;17.53;12.90;;;;;;;;;;5078235;28;20463;-65
2021/09/05 06:09:10;;;;;;;19.40;12.90;;;;;;;;;;5081358;28;20826;-66
2021/09/05 06:11:37;;;;;;;23.37;12.20;;;;;;;;;;5082032;28;20443;-66
2021/09/05 06:14:04;;;;;;;19.27;12.47;;;;;;;;;;5082016;28;20436;-65
2021/09/05 06:16:32;;;;;;;17.17;10.73;;;;;;;;;;5082431;28;20454;-64
2021/09/05 06:18:59;;;;;;;27.10;13.30;;;;;;;;;;5083008;28;20459;-65
2021/09/05 06:21:27;;;;;;;19.53;11.97;;;;;;;;;;5083151;28;20544;-65
2021/09/05 06:23:54;;;;;;;23.70;14.80;;;;;;;;;;5080705;28;20554;-64
2021/09/05 06:26:23;;;;;;;21.73;14.63;;;;;;;;;;5079583;28;20447;-65
2021/09/05 06:28:50;;;;;;;27.67;16.03;;;;;;;;;;5078714;28;20483;-65
2021/09/05 06:31:17;;;;;;;19.40;15.00;;;;;;;;;;5077746;28;20447;-65
2021/09/05 06:33:45;;;;;;;31.00;14.70;;;;;;;;;;5078665;28;20870;-64
2021/09/05 06:36:12;;;;;;;23.60;15.10;;;;;;;;;;5079475;28;20469;-65
2021/09/05 06:38:39;;;;;;;33.57;15.83;;;;;;;;;;5078329;28;20467;-64
2021/09/05 06:41:06;;;;;;;29.80;16.20;;;;;;;;;;5079819;28;20481;-65
2021/09/05 06:43:35;;;;;;;26.00;15.20;;;;;;;;;;5079602;28;20448;-64
2021/09/05 06:46:02;;;;;;;33.07;15.13;;;;;;;;;;5077705;28;20822;-65
2021/09/05 06:48:30;;;;;;;22.73;12.97;;;;;;;;;;5078056;28;20540;-65
2021/09/05 06:50:57;;;;;;;34.53;15.63;;;;;;;;;;5078907;28;20451;-64
2021/09/05 06:53:24;;;;;;;24.40;14.43;;;;;;;;;;5079398;28;20443;-65
2021/09/05 06:55:52;;;;;;;37.07;16.07;;;;;;;;;;5078411;28;20442;-63
2021/09/05 06:58:19;;;;;;;28.27;15.30;;;;;;;;;;5078595;28;20481;-64
2021/09/05 07:00:48;;;;;;;18.60;13.60;;;;;;;;;;5078321;28;20453;-64
2021/09/05 07:03:15;;;;;;;30.83;16.80;;;;;;;;;;5078664;28;20439;-64
2021/09/05 07:05:43;;;;;;;31.07;14.63;;;;;;;;;;5078502;28;20447;-65
2021/09/05 07:08:10;;;;;;;23.83;14.10;;;;;;;;;;5077434;28;20544;-64
2021/09/05 07:10:40;;;;;;;27.40;13.40;;;;;;;;;;5077271;28;20496;-65
2021/09/05 07:13:08;;;;;;;19.40;13.83;;;;;;;;;;5078101;28;20914;-62
2021/09/05 07:15:35;;;;;;;18.93;14.33;;;;;;;;;;5078402;28;20443;-65
2021/09/05 07:18:04;;;;;;;16.47;12.60;;;;;;;;;;5077046;28;20812;-64
2021/09/05 07:20:32;;;;;;;17.37;12.80;;;;;;;;;;5076900;28;20442;-64
2021/09/05 07:22:59;;;;;;;15.37;12.93;;;;;;;;;;5077206;28;20462;-65
2021/09/05 07:25:27;;;;;;;16.67;12.13;;;;;;;;;;5079157;28;20805;-65
2021/09/05 07:27:55;;;;;;;15.70;12.90;;;;;;;;;;5078408;28;21088;-65
2021/09/05 07:30:22;;;;;;;16.87;13.73;;;;;;;;;;5076822;28;20923;-65
2021/09/05 07:32:50;;;;;;;16.10;13.10;;;;;;;;;;5078672;28;20432;-64
2021/09/05 07:35:18;;;;;;;16.17;13.33;;;;;;;;;;5080280;28;20453;-63
2021/09/05 07:37:46;;;;;;;21.37;13.00;;;;;;;;;;5081418;28;20520;-64
2021/09/05 07:40:14;;;;;;;16.67;13.07;;;;;;;;;;5084449;28;20963;-65
2021/09/05 07:42:42;;;;;;;13.93;11.77;;;;;;;;;;5084687;28;20450;-63
2021/09/05 07:45:09;;;;;;;15.10;13.50;;;;;;;;;;5083591;28;20450;-64
2021/09/05 07:47:37;;;;;;;15.33;12.00;;;;;;;;;;5086311;28;20483;-66
2021/09/05 07:50:05;;;;;;;13.83;12.13;;;;;;;;;;5086998;28;20450;-65
2021/09/05 07:52:33;;;;;;;13.50;11.87;;;;;;;;;;5086222;28;20497;-66
2021/09/05 07:55:01;;;;;;;11.97;10.73;;;;;;;;;;5082685;28;20465;-65
2021/09/05 07:57:28;;;;;;;13.73;11.27;;;;;;;;;;5079703;28;20444;-66
2021/09/05 07:59:55;;;;;;;12.23;10.13;;;;;;;;;;5081734;28;20443;-65
2021/09/05 08:02:22;;;;;;;12.23;10.87;;;;;;;;;;5081497;28;20473;-66
2021/09/05 08:04:50;;;;;;;14.73;10.50;;;;;;;;;;5081440;28;20790;-66
2021/09/05 08:07:17;;;;;;;11.70;10.40;;;;;;;;;;5079111;28;20443;-66
2021/09/05 08:09:46;;;;;;;12.53;9.50;;;;;;;;;;5078869;28;20517;-66
2021/09/05 08:12:13;;;;;;;11.30;10.00;;;;;;;;;;5078618;28;20473;-65
2021/09/05 08:14:40;;;;;;;10.17;8.97;;;;;;;;;;5076977;28;20935;-65
2021/09/05 08:17:07;;;;;;;11.00;9.80;;;;;;;;;;5076827;28;21000;-65
2021/09/05 08:19:35;;;;;;;11.37;10.27;;;;;;;;;;5078567;28;20456;-65
2021/09/05 08:22:02;;;;;;;12.60;10.40;;;;;;;;;;5078705;28;20443;-66
2021/09/05 08:24:30;;;;;;;11.20;10.20;;;;;;;;;;5079474;28;20434;-65
2021/09/05 08:26:58;;;;;;;14.30;12.37;;;;;;;;;;5078138;28;20493;-66
2021/09/05 08:29:25;;;;;;;17.37;14.70;;;;;;;;;;5077519;28;20523;-65
2021/09/05 08:31:53;;;;;;;15.83;14.20;;;;;;;;;;5077361;28;20451;-66
2021/09/05 08:34:20;;;;;;;16.77;14.63;;;;;;;;;;5079681;28;20451;-65
2021/09/05 08:36:48;;;;;;;16.73;14.93;;;;;;;;;;5079075;28;20855;-64
2021/09/05 08:39:15;;;;;;;13.40;12.10;;;;;;;;;;5079434;28;20965;-66
2021/09/05 08:41:43;;;;;;;15.07;12.77;;;;;;;;;;5081283;28;20934;-65
2021/09/05 08:44:11;;;;;;;14.43;12.47;;;;;;;;;;5080025;28;20451;-64
2021/09/05 08:46:40;;;;;;;11.60;10.50;;;;;;;;;;5078889;28;20443;-65
2021/09/05 08:49:07;;;;;;;14.10;12.70;;;;;;;;;;5078697;28;20479;-65
2021/09/05 08:51:34;;;;;;;16.30;14.60;;;;;;;;;;5078877;28;20443;-64
2021/09/05 08:54:01;;;;;;;15.33;13.70;;;;;;;;;;5079670;28;20458;-65
2021/09/05 08:56:29;;;;;;;16.00;13.63;;;;;;;;;;5081009;28;20864;-66
2021/09/05 08:58:56;;;;;;;20.00;15.80;;;;;;;;;;5081169;28;20486;-65
2021/09/05 09:01:28;;;;;;;21.07;18.80;;;;;;;;;;5082086;28;20447;-65
2021/09/05 09:04:05;;;;;;;22.80;19.17;;;;;;;;;;5082064;28;20454;-65
2021/09/05 09:06:37;;;;;;;22.90;18.70;;;;;;;;;;5083129;28;20455;-65
2021/09/05 09:09:05;;;;;;;19.43;17.43;;;;;;;;;;5081549;28;21091;-66
2021/09/05 09:11:47;;;;;;;24.33;19.03;;;;;;;;;;5081460;28;20508;-66
2021/09/05 09:14:14;;;;;;;21.70;18.40;;;;;;;;;;5082800;28;20886;-66
2021/09/05 09:16:43;;;;;;;17.60;15.90;;;;;;;;;;5082848;28;20439;-65
2021/09/05 09:19:22;;;;;;;18.53;16.60;;;;;;;;;;5081862;28;20981;-65
2021/09/05 09:21:49;;;;;;;19.50;17.40;;;;;;;;;;5082193;28;20526;-64
2021/09/05 09:24:18;;;;;;;20.20;18.20;;;;;;;;;;5081590;28;20458;-65
2021/09/05 09:26:56;;;;;;;18.90;16.83;;;;;;;;;;5081353;28;20456;-64
2021/09/05 09:29:24;;;;;;;16.80;15.20;;;;;;;;;;5083277;28;20490;-65
2021/09/05 09:31:59;;;;;;;19.37;17.47;;;;;;;;;;5082700;28;20777;-65
2021/09/05 09:34:26;;;;;;;17.27;15.57;;;;;;;;;;5082006;28;20435;-65
2021/09/05 09:36:58;;;;;;;19.00;17.30;;;;;;;;;;5082436;28;20447;-64
2021/09/05 09:39:25;;;;;;;17.90;16.10;;;;;;;;;;5084041;28;20472;-65
2021/09/05 09:41:53;;;;;;;13.87;12.50;;;;;;;;;;5081408;28;20957;-64
2021/09/05 09:44:20;;;;;;;17.17;15.40;;;;;;;;;;5078981;28;20947;-65
2021/09/05 09:46:47;;;;;;;19.90;17.90;;;;;;;;;;5079756;28;20451;-65
2021/09/05 09:49:17;;;;;;;20.37;18.47;;;;;;;;;;5079047;28;20479;-65
2021/09/05 09:51:44;;;;;;;18.73;17.03;;;;;;;;;;5079253;28;20447;-64
2021/09/05 09:54:12;;;;;;;16.70;15.10;;;;;;;;;;5079563;28;20475;-65
2021/09/05 09:56:39;;;;;;;14.33;12.93;;;;;;;;;;5080107;28;20473;-63
2021/09/05 09:59:07;;;;;;;14.60;13.10;;;;;;;;;;5079061;28;20464;-65
2021/09/05 10:01:36;;;;;;;11.83;10.73;;;;;;;;;;5078769;28;20447;-64
2021/09/05 10:04:05;;;;;;;12.60;11.30;;;;;;;;;;5079711;28;20966;-66
2021/09/05 10:06:34;;;;;;;12.90;11.60;;;;;;;;;;5079269;28;20463;-65
2021/09/05 10:09:02;;;;;;;14.30;12.83;;;;;;;;;;5080262;28;20490;-65
2021/09/05 10:11:30;;;;;;;11.67;10.57;;;;;;;;;;5081995;28;20883;-64
2021/09/05 10:13:58;;;;;;;12.40;9.80;;;;;;;;;;5078947;28;20978;-66
2021/09/05 10:16:26;;;;;;;13.27;12.00;;;;;;;;;;5078859;28;20439;-65
2021/09/05 10:18:53;;;;;;;11.60;10.27;;;;;;;;;;5077438;28;21021;-65
2021/09/05 10:21:21;;;;;;;13.73;10.60;;;;;;;;;;5078422;28;20447;-65
2021/09/05 10:23:52;;;;;;;11.63;10.43;;;;;;;;;;5079318;28;20440;-65
2021/09/05 10:26:19;;;;;;;10.20;9.20;;;;;;;;;;5078814;28;20461;-66
2021/09/05 10:28:47;;;;;;;12.77;8.90;;;;;;;;;;5079834;28;20491;-65
2021/09/05 10:31:24;;;;;;;10.53;8.50;;;;;;;;;;5079133;28;20443;-65
2021/09/05 10:33:51;;;;;;;9.43;8.40;;;;;;;;;;5078991;28;20431;-65
2021/09/05 10:36:19;;;;;;;9.90;8.93;;;;;;;;;;5079287;28;20447;-65
2021/09/05 10:38:47;;;;;;;10.90;8.40;;;;;;;;;;5079040;28;20847;-63
2021/09/05 10:41:17;;;;;;;12.50;9.70;;;;;;;;;;5078815;28;20513;-65
2021/09/05 10:43:54;;;;;;;10.77;9.20;;;;;;;;;;5078719;28;20450;-64
2021/09/05 10:46:22;;;;;;;10.90;9.17;;;;;;;;;;5078463;28;20452;-66
2021/09/05 10:48:49;;;;;;;9.97;8.93;;;;;;;;;;5077825;28;20867;-65
2021/09/05 10:51:17;;;;;;;10.60;8.87;;;;;;;;;;5080110;28;20471;-65
2021/09/05 10:53:52;;;;;;;13.93;11.90;;;;;;;;;;5079497;28;21008;-64
2021/09/05 10:56:22;;;;;;;12.47;11.20;;;;;;;;;;5079282;28;20846;-65
2021/09/05 10:58:50;;;;;;;12.23;10.90;;;;;;;;;;5080009;28;20459;-66
2021/09/05 11:01:22;;;;;;;13.83;10.90;;;;;;;;;;5080276;28;20439;-67
2021/09/05 11:04:08;;;;;;;11.27;10.03;;;;;;;;;;5078722;28;20447;-63
2021/09/05 11:06:35;;;;;;;12.50;11.20;;;;;;;;;;5078809;28;20884;-65
2021/09/05 11:09:17;;;;;;;11.03;9.97;;;;;;;;;;5078030;28;20826;-66
2021/09/05 11:11:55;;;;;;;12.30;11.00;;;;;;;;;;5077004;28;20444;-64
2021/09/05 11:14:53;;;;;;;12.20;10.57;;;;;;;;;;5078404;28;20446;-65
2021/09/05 11:17:21;;;;;;;12.83;10.80;;;;;;;;;;5077848;28;20488;-66
2021/09/05 11:19:49;;;;;;;11.53;10.33;;;;;;;;;;5077949;28;20444;-64
2021/09/05 11:22:17;;;;;;;12.43;11.10;;;;;;;;;;5077808;28;20446;-65
2021/09/05 11:24:44;;;;;;;15.37;11.30;;;;;;;;;;5077450;28;20431;-65
2021/09/05 11:27:14;;;;;;;12.97;11.67;;;;;;;;;;5078720;28;20501;-65
2021/09/05 11:29:41;;;;;;;15.07;11.57;;;;;;;;;;5078569;28;20483;-65
2021/09/05 11:32:09;;;;;;;16.37;12.20;;;;;;;;;;5077168;28;20455;-65
2021/09/05 11:34:37;;;;;;;13.37;11.97;;;;;;;;;;5077030;28;20442;-64
2021/09/05 11:37:05;;;;;;;12.60;11.30;;;;;;;;;;5077734;28;20516;-65
2021/09/05 11:39:33;;;;;;;13.50;12.10;;;;;;;;;;5078015;28;20525;-64
2021/09/05 11:42:01;;;;;;;16.33;12.77;;;;;;;;;;5077478;28;20501;-65
2021/09/05 11:44:30;;;;;;;13.20;11.83;;;;;;;;;;5077693;28;20446;-65
2021/09/05 11:47:10;;;;;;;14.33;12.63;;;;;;;;;;5076932;28;20447;-64
2021/09/05 11:49:38;;;;;;;15.27;13.30;;;;;;;;;;5076422;28;20505;-66
2021/09/05 11:52:06;;;;;;;16.07;12.10;;;;;;;;;;5077325;28;20448;-64
2021/09/05 11:54:33;;;;;;;12.93;11.67;;;;;;;;;;5078490;28;20451;-65
2021/09/05 11:57:00;;;;;;;14.73;12.90;;;;;;;;;;5076464;28;20447;-64
2021/09/05 11:59:30;;;;;;;13.90;12.60;;;;;;;;;;5078156;28;20474;-66
2021/09/05 12:01:57;;;;;;;19.50;14.20;;;;;;;;;;5077917;28;20870;-64
2021/09/05 12:04:24;;;;;;;15.33;13.73;;;;;;;;;;5077109;28;20443;-65
2021/09/05 12:06:52;;;;;;;15.20;13.53;;;;;;;;;;5077777;28;20451;-65
2021/09/05 12:09:27;;;;;;;14.17;11.93;;;;;;;;;;5077555;28;20505;-64
2021/09/05 12:11:58;;;;;;;15.47;12.07;;;;;;;;;;5078416;28;20462;-64
2021/09/05 12:14:30;;;;;;;13.97;10.87;;;;;;;;;;5077593;28;20447;-65
2021/09/05 12:16:57;;;;;;;14.30;12.40;;;;;;;;;;5077070;28;20440;-65
2021/09/05 12:19:24;;;;;;;15.13;11.97;;;;;;;;;;5077237;28;20567;-65
2021/09/05 12:21:57;;;;;;;16.17;12.30;;;;;;;;;;5075711;28;20454;-65
2021/09/05 12:24:25;;;;;;;11.50;10.13;;;;;;;;;;5075843;28;20524;-64
2021/09/05 12:26:52;;;;;;;13.30;11.83;;;;;;;;;;5076498;28;20457;-64
2021/09/05 12:29:29;;;;;;;12.43;10.70;;;;;;;;;;5077486;28;20483;-64
2021/09/05 12:32:03;;;;;;;14.37;11.37;;;;;;;;;;5079970;28;20449;-65
2021/09/05 12:34:38;;;;;;;12.07;10.87;;;;;;;;;;5079278;28;20516;-65
2021/09/05 12:37:11;;;;;;;14.03;11.27;;;;;;;;;;5079573;28;20446;-64
2021/09/05 12:39:38;;;;;;;13.57;11.10;;;;;;;;;;5078592;28;20463;-64
2021/09/05 12:42:08;;;;;;;12.70;10.20;;;;;;;;;;5079523;28;20447;-65
2021/09/05 12:44:41;;;;;;;12.10;10.90;;;;;;;;;;5078508;28;20439;-65
2021/09/05 12:47:10;;;;;;;12.80;10.20;;;;;;;;;;5080149;28;20498;-65
2021/09/05 12:49:40;;;;;;;15.17;11.70;;;;;;;;;;5079307;28;20487;-64
2021/09/05 12:52:08;;;;;;;15.53;14.00;;;;;;;;;;5079859;28;20438;-65
2021/09/05 12:54:39;;;;;;;15.30;12.13;;;;;;;;;;5082853;28;20527;-64
2021/09/05 12:57:07;;;;;;;12.13;10.83;;;;;;;;;;5081215;28;20434;-64
2021/09/05 12:59:34;;;;;;;13.93;11.53;;;;;;;;;;5080147;28;20475;-64
2021/09/05 13:02:02;;;;;;;13.00;11.63;;;;;;;;;;5079839;28;20439;-64
2021/09/05 13:04:30;;;;;;;13.40;11.60;;;;;;;;;;5078675;28;20538;-65
2021/09/05 13:06:58;;;;;;;13.67;12.27;;;;;;;;;;5078671;28;20915;-65
2021/09/05 13:09:25;;;;;;;13.80;12.30;;;;;;;;;;5078393;28;20505;-65
2021/09/05 13:11:52;;;;;;;15.20;12.87;;;;;;;;;;5079523;28;20439;-65
2021/09/05 13:14:20;;;;;;;16.00;12.60;;;;;;;;;;5078613;28;20497;-64
2021/09/05 13:16:47;;;;;;;14.37;11.67;;;;;;;;;;5078200;28;20439;-63
2021/09/05 13:19:14;;;;;;;13.67;11.70;;;;;;;;;;5079082;28;20466;-65
2021/09/05 13:21:43;;;;;;;14.27;12.03;;;;;;;;;;5079057;28;20505;-64
2021/09/05 13:24:11;;;;;;;18.80;12.13;;;;;;;;;;5079134;28;20443;-64
2021/09/05 13:26:38;;;;;;;17.90;12.83;;;;;;;;;;5078841;28;20430;-66
2021/09/05 13:29:06;;;;;;;13.13;10.57;;;;;;;;;;5078884;28;20471;-65
2021/09/05 13:31:33;;;;;;;16.90;11.83;;;;;;;;;;5078750;28;20454;-64
2021/09/05 13:34:01;;;;;;;11.70;10.30;;;;;;;;;;5077783;28;20546;-65
2021/09/05 13:36:28;;;;;;;12.67;10.93;;;;;;;;;;5079028;28;20443;-64
2021/09/05 13:38:57;;;;;;;11.20;9.60;;;;;;;;;;5077306;28;20474;-65
2021/09/05 13:41:24;;;;;;;10.93;9.87;;;;;;;;;;5077865;28;20435;-65
2021/09/05 13:43:52;;;;;;;12.03;9.17;;;;;;;;;;5076982;28;20970;-64
2021/09/05 13:46:19;;;;;;;12.40;10.57;;;;;;;;;;5077705;28;21053;-65
2021/09/05 13:48:46;;;;;;;10.57;9.47;;;;;;;;;;5078237;28;20528;-63
2021/09/05 13:51:13;;;;;;;11.10;9.43;;;;;;;;;;5077835;28;20551;-64
2021/09/05 13:53:41;;;;;;;13.57;10.20;;;;;;;;;;5078045;28;20514;-65
2021/09/05 13:56:10;;;;;;;11.80;10.17;;;;;;;;;;5077645;28;20459;-65
2021/09/05 13:58:38;;;;;;;12.40;9.30;;;;;;;;;;5077448;28;20532;-64
2021/09/05 14:01:05;;;;;;;9.67;8.67;;;;;;;;;;5079113;28;20813;-64
2021/09/05 14:03:33;;;;;;;11.43;8.43;;;;;;;;;;5078474;28;20506;-64
2021/09/05 14:06:00;;;;;;;12.43;8.57;;;;;;;;;;5077018;28;20903;-65
2021/09/05 14:08:28;;;;;;;10.13;8.30;;;;;;;;;;5078681;28;20474;-63
2021/09/05 14:10:55;;;;;;;11.10;8.13;;;;;;;;;;5076929;28;20486;-65
2021/09/05 14:13:24;;;;;;;10.03;7.67;;;;;;;;;;5077084;28;20450;-63
2021/09/05 14:15:51;;;;;;;8.60;7.50;;;;;;;;;;5077226;28;20459;-65
2021/09/05 14:18:18;;;;;;;9.87;8.87;;;;;;;;;;5076435;28;20463;-64
2021/09/05 14:20:46;;;;;;;11.20;8.00;;;;;;;;;;5078143;28;20439;-64
2021/09/05 14:23:14;;;;;;;9.67;8.23;;;;;;;;;;5077635;28;20921;-64
2021/09/05 14:25:43;;;;;;;8.43;7.20;;;;;;;;;;5077952;28;20451;-65
2021/09/05 14:28:12;;;;;;;8.90;6.87;;;;;;;;;;5077105;28;20882;-65
2021/09/05 14:30:45;;;;;;;9.40;8.03;;;;;;;;;;5078257;28;20475;-65